sensor_id;sensor_type;location;lat;lon;timestamp;temperature;humidity
36800;DHT22;22752;51.960;5.886;2023-03-30T00:01:18;13.30;99.90
36800;DHT22;22752;51.960;5.886;2023-03-30T00:03:45;13.30;99.90
36800;DHT22;22752;51.960;5.886;2023-03-30T00:06:12;13.40;99.90
36800;DHT22;22752;51.960;5.886;2023-03-30T00:08:52;13.50;99.90
36800;DHT22;22752;51.960;5.886;2023-03-30T00:11:22;13.50;99.90
36800;DHT22;22752;51.960;5.886;2023-03-30T00:13:48;13.50;99.90
36800;DHT22;22752;51.960;5.886;2023-03-30T00:16:17;13.60;99.90
36800;DHT22;22752;51.960;5.886;2023-03-30T00:18:43;13.60;99.90
36800;DHT22;22752;51.960;5.886;2023-03-30T00:21:12;13.60;99.90
36800;DHT22;22752;51.960;5.886;2023-03-30T00:23:38;13.60;99.90
36800;DHT22;22752;51.960;5.886;2023-03-30T00:26:04;13.70;99.90
36800;DHT22;22752;51.960;5.886;2023-03-30T00:28:31;13.70;99.90
36800;DHT22;22752;51.960;5.886;2023-03-30T00:30:57;13.70;99.90
36800;DHT22;22752;51.960;5.886;2023-03-30T00:33:23;13.70;99.90
36800;DHT22;22752;51.960;5.886;2023-03-30T00:35:56;13.70;99.90
36800;DHT22;22752;51.960;5.886;2023-03-30T00:38:23;13.60;99.90
36800;DHT22;22752;51.960;5.886;2023-03-30T00:40:55;13.60;99.90
36800;DHT22;22752;51.960;5.886;2023-03-30T00:43:22;13.60;99.90
36800;DHT22;22752;51.960;5.886;2023-03-30T00:45:48;13.60;99.90
36800;DHT22;22752;51.960;5.886;2023-03-30T00:50:54;13.50;99.90
36800;DHT22;22752;51.960;5.886;2023-03-30T00:53:41;13.40;99.90
36800;DHT22;22752;51.960;5.886;2023-03-30T00:56:09;13.40;99.90
36800;DHT22;22752;51.960;5.886;2023-03-30T00:58:37;13.50;99.90
36800;DHT22;22752;51.960;5.886;2023-03-30T01:01:05;13.50;99.90
36800;DHT22;22752;51.960;5.886;2023-03-30T01:03:44;13.60;99.90
36800;DHT22;22752;51.960;5.886;2023-03-30T01:06:13;13.60;99.90
36800;DHT22;22752;51.960;5.886;2023-03-30T01:08:43;13.60;99.90
36800;DHT22;22752;51.960;5.886;2023-03-30T01:11:09;13.60;99.90
36800;DHT22;22752;51.960;5.886;2023-03-30T01:13:39;13.60;99.90
36800;DHT22;22752;51.960;5.886;2023-03-30T01:41:08;13.50;99.90
36800;DHT22;22752;51.960;5.886;2023-03-30T01:43:46;13.50;99.90
36800;DHT22;22752;51.960;5.886;2023-03-30T01:46:18;13.60;99.90
36800;DHT22;22752;51.960;5.886;2023-03-30T01:49:00;13.60;99.90
36800;DHT22;22752;51.960;5.886;2023-03-30T01:51:34;13.70;99.90
36800;DHT22;22752;51.960;5.886;2023-03-30T01:54:07;13.60;99.90
36800;DHT22;22752;51.960;5.886;2023-03-30T01:59:36;13.70;99.90
36800;DHT22;22752;51.960;5.886;2023-03-30T02:02:04;13.70;99.90
36800;DHT22;22752;51.960;5.886;2023-03-30T02:04:35;13.70;99.90
36800;DHT22;22752;51.960;5.886;2023-03-30T02:07:10;13.70;99.90
36800;DHT22;22752;51.960;5.886;2023-03-30T02:09:39;13.70;99.90
36800;DHT22;22752;51.960;5.886;2023-03-30T02:12:07;13.70;99.90
36800;DHT22;22752;51.960;5.886;2023-03-30T02:14:35;13.70;99.90
36800;DHT22;22752;51.960;5.886;2023-03-30T02:17:28;13.60;99.90
36800;DHT22;22752;51.960;5.886;2023-03-30T02:19:52;13.60;99.90
36800;DHT22;22752;51.960;5.886;2023-03-30T02:22:19;13.60;99.90
36800;DHT22;22752;51.960;5.886;2023-03-30T02:24:47;13.60;99.90
36800;DHT22;22752;51.960;5.886;2023-03-30T02:27:14;13.60;99.90
36800;DHT22;22752;51.960;5.886;2023-03-30T02:29:43;13.60;99.90
36800;DHT22;22752;51.960;5.886;2023-03-30T02:32:21;13.60;99.90
36800;DHT22;22752;51.960;5.886;2023-03-30T02:40:39;13.50;99.90
36800;DHT22;22752;51.960;5.886;2023-03-30T02:46:18;13.40;99.90
36800;DHT22;22752;51.960;5.886;2023-03-30T02:54:58;13.40;99.90
36800;DHT22;22752;51.960;5.886;2023-03-30T03:00:02;13.50;99.90
36800;DHT22;22752;51.960;5.886;2023-03-30T03:02:43;13.50;99.90
36800;DHT22;22752;51.960;5.886;2023-03-30T03:05:13;13.60;99.90
36800;DHT22;22752;51.960;5.886;2023-03-30T03:07:40;13.60;99.90
36800;DHT22;22752;51.960;5.886;2023-03-30T03:10:07;13.60;99.90
36800;DHT22;22752;51.960;5.886;2023-03-30T03:12:33;13.60;99.90
36800;DHT22;22752;51.960;5.886;2023-03-30T03:14:59;13.70;99.90
36800;DHT22;22752;51.960;5.886;2023-03-30T03:17:30;13.70;99.90
36800;DHT22;22752;51.960;5.886;2023-03-30T03:20:03;13.70;99.90
36800;DHT22;22752;51.960;5.886;2023-03-30T03:22:29;13.70;99.90
36800;DHT22;22752;51.960;5.886;2023-03-30T03:24:55;13.60;99.90
36800;DHT22;22752;51.960;5.886;2023-03-30T03:27:21;13.60;99.90
36800;DHT22;22752;51.960;5.886;2023-03-30T03:29:47;13.60;99.90
36800;DHT22;22752;51.960;5.886;2023-03-30T03:32:14;13.60;99.90
36800;DHT22;22752;51.960;5.886;2023-03-30T03:34:40;13.60;99.90
36800;DHT22;22752;51.960;5.886;2023-03-30T03:37:09;13.60;99.90
36800;DHT22;22752;51.960;5.886;2023-03-30T03:39:35;13.50;99.90
36800;DHT22;22752;51.960;5.886;2023-03-30T03:42:05;13.40;99.90
36800;DHT22;22752;51.960;5.886;2023-03-30T03:44:31;13.40;99.90
36800;DHT22;22752;51.960;5.886;2023-03-30T03:46:57;13.30;99.90
36800;DHT22;22752;51.960;5.886;2023-03-30T03:49:23;13.20;99.90
36800;DHT22;22752;51.960;5.886;2023-03-30T03:51:48;13.10;99.90
36800;DHT22;22752;51.960;5.886;2023-03-30T03:54:14;13.00;99.90
36800;DHT22;22752;51.960;5.886;2023-03-30T03:56:40;13.00;99.90
36800;DHT22;22752;51.960;5.886;2023-03-30T03:59:06;12.90;99.90
36800;DHT22;22752;51.960;5.886;2023-03-30T04:01:32;12.90;99.90
36800;DHT22;22752;51.960;5.886;2023-03-30T04:03:57;12.90;99.90
36800;DHT22;22752;51.960;5.886;2023-03-30T04:06:23;13.00;99.90
36800;DHT22;22752;51.960;5.886;2023-03-30T04:08:49;13.10;99.90
36800;DHT22;22752;51.960;5.886;2023-03-30T04:11:14;13.20;99.90
36800;DHT22;22752;51.960;5.886;2023-03-30T04:13:40;13.30;99.90
36800;DHT22;22752;51.960;5.886;2023-03-30T04:16:06;13.50;99.90
36800;DHT22;22752;51.960;5.886;2023-03-30T04:18:33;13.50;99.90
36800;DHT22;22752;51.960;5.886;2023-03-30T04:21:00;13.60;99.90
36800;DHT22;22752;51.960;5.886;2023-03-30T04:23:31;13.60;99.90
36800;DHT22;22752;51.960;5.886;2023-03-30T04:25:58;13.60;99.90
36800;DHT22;22752;51.960;5.886;2023-03-30T04:28:27;13.60;99.90
36800;DHT22;22752;51.960;5.886;2023-03-30T04:31:00;13.60;99.90
36800;DHT22;22752;51.960;5.886;2023-03-30T04:33:27;13.70;99.90
36800;DHT22;22752;51.960;5.886;2023-03-30T04:35:53;13.60;99.90
36800;DHT22;22752;51.960;5.886;2023-03-30T04:38:18;13.70;99.90
36800;DHT22;22752;51.960;5.886;2023-03-30T04:40:47;13.70;99.90
36800;DHT22;22752;51.960;5.886;2023-03-30T04:43:13;13.70;99.90
36800;DHT22;22752;51.960;5.886;2023-03-30T04:45:39;13.70;99.90
36800;DHT22;22752;51.960;5.886;2023-03-30T04:48:04;13.70;99.90
36800;DHT22;22752;51.960;5.886;2023-03-30T04:50:30;13.70;99.90
36800;DHT22;22752;51.960;5.886;2023-03-30T04:52:56;13.70;99.90
36800;DHT22;22752;51.960;5.886;2023-03-30T04:55:22;13.60;99.90
36800;DHT22;22752;51.960;5.886;2023-03-30T04:57:48;13.60;99.90
36800;DHT22;22752;51.960;5.886;2023-03-30T05:00:14;13.60;99.90
36800;DHT22;22752;51.960;5.886;2023-03-30T05:02:40;13.60;99.90
36800;DHT22;22752;51.960;5.886;2023-03-30T05:05:06;13.50;99.90
36800;DHT22;22752;51.960;5.886;2023-03-30T05:07:32;13.50;99.90
36800;DHT22;22752;51.960;5.886;2023-03-30T05:09:57;13.50;99.90
36800;DHT22;22752;51.960;5.886;2023-03-30T05:12:23;13.40;99.90
36800;DHT22;22752;51.960;5.886;2023-03-30T05:14:48;13.30;99.90
36800;DHT22;22752;51.960;5.886;2023-03-30T05:17:14;13.30;99.90
36800;DHT22;22752;51.960;5.886;2023-03-30T05:19:40;13.30;99.90
36800;DHT22;22752;51.960;5.886;2023-03-30T05:22:05;13.20;99.90
36800;DHT22;22752;51.960;5.886;2023-03-30T05:24:31;13.20;99.90
36800;DHT22;22752;51.960;5.886;2023-03-30T05:26:57;13.20;99.90
36800;DHT22;22752;51.960;5.886;2023-03-30T05:29:23;13.20;99.90
36800;DHT22;22752;51.960;5.886;2023-03-30T05:31:48;13.20;99.90
36800;DHT22;22752;51.960;5.886;2023-03-30T05:34:14;13.10;99.90
36800;DHT22;22752;51.960;5.886;2023-03-30T05:36:40;13.00;99.90
36800;DHT22;22752;51.960;5.886;2023-03-30T05:39:06;13.00;99.90
36800;DHT22;22752;51.960;5.886;2023-03-30T05:41:31;12.90;99.90
36800;DHT22;22752;51.960;5.886;2023-03-30T05:43:57;12.90;99.90
36800;DHT22;22752;51.960;5.886;2023-03-30T05:46:23;12.90;99.90
36800;DHT22;22752;51.960;5.886;2023-03-30T05:48:48;12.80;99.90
36800;DHT22;22752;51.960;5.886;2023-03-30T05:51:14;12.80;99.90
36800;DHT22;22752;51.960;5.886;2023-03-30T05:53:40;12.80;99.90
36800;DHT22;22752;51.960;5.886;2023-03-30T05:56:06;12.80;99.90
36800;DHT22;22752;51.960;5.886;2023-03-30T05:58:32;12.80;99.90
36800;DHT22;22752;51.960;5.886;2023-03-30T06:00:58;12.80;99.90
36800;DHT22;22752;51.960;5.886;2023-03-30T06:03:23;12.80;99.90
36800;DHT22;22752;51.960;5.886;2023-03-30T06:05:51;12.90;99.90
36800;DHT22;22752;51.960;5.886;2023-03-30T06:08:18;12.90;99.90
36800;DHT22;22752;51.960;5.886;2023-03-30T06:10:52;13.00;99.90
36800;DHT22;22752;51.960;5.886;2023-03-30T06:13:18;13.00;99.90
36800;DHT22;22752;51.960;5.886;2023-03-30T06:15:46;13.00;99.90
36800;DHT22;22752;51.960;5.886;2023-03-30T06:18:12;13.10;99.90
36800;DHT22;22752;51.960;5.886;2023-03-30T06:20:38;13.10;99.90
36800;DHT22;22752;51.960;5.886;2023-03-30T06:23:03;13.20;99.90
36800;DHT22;22752;51.960;5.886;2023-03-30T06:25:29;13.20;99.90
36800;DHT22;22752;51.960;5.886;2023-03-30T06:27:55;13.20;99.90
36800;DHT22;22752;51.960;5.886;2023-03-30T06:30:22;13.20;99.90
36800;DHT22;22752;51.960;5.886;2023-03-30T06:32:48;13.30;99.90
36800;DHT22;22752;51.960;5.886;2023-03-30T06:35:14;13.30;99.90
36800;DHT22;22752;51.960;5.886;2023-03-30T06:37:42;13.30;99.90
36800;DHT22;22752;51.960;5.886;2023-03-30T06:40:09;13.30;99.90
36800;DHT22;22752;51.960;5.886;2023-03-30T06:42:42;13.30;99.90
36800;DHT22;22752;51.960;5.886;2023-03-30T06:45:14;13.30;99.90
36800;DHT22;22752;51.960;5.886;2023-03-30T06:47:40;13.30;99.90
36800;DHT22;22752;51.960;5.886;2023-03-30T06:50:07;13.30;99.90
36800;DHT22;22752;51.960;5.886;2023-03-30T06:52:34;13.30;99.90
36800;DHT22;22752;51.960;5.886;2023-03-30T06:54:59;13.30;99.90
36800;DHT22;22752;51.960;5.886;2023-03-30T06:57:25;13.30;99.90
36800;DHT22;22752;51.960;5.886;2023-03-30T06:59:51;13.30;99.90
36800;DHT22;22752;51.960;5.886;2023-03-30T07:02:16;13.20;99.90
36800;DHT22;22752;51.960;5.886;2023-03-30T07:04:42;13.20;99.90
36800;DHT22;22752;51.960;5.886;2023-03-30T07:07:11;13.20;99.90
36800;DHT22;22752;51.960;5.886;2023-03-30T07:09:37;13.20;99.90
36800;DHT22;22752;51.960;5.886;2023-03-30T07:12:03;13.20;99.90
36800;DHT22;22752;51.960;5.886;2023-03-30T07:14:28;13.20;99.90
36800;DHT22;22752;51.960;5.886;2023-03-30T07:16:54;13.30;99.90
36800;DHT22;22752;51.960;5.886;2023-03-30T07:19:21;13.30;99.90
36800;DHT22;22752;51.960;5.886;2023-03-30T07:21:46;13.50;99.90
36800;DHT22;22752;51.960;5.886;2023-03-30T07:24:12;13.80;99.90
36800;DHT22;22752;51.960;5.886;2023-03-30T07:26:38;14.00;99.90
36800;DHT22;22752;51.960;5.886;2023-03-30T07:29:03;14.60;99.90
36800;DHT22;22752;51.960;5.886;2023-03-30T07:31:30;15.30;99.90
36800;DHT22;22752;51.960;5.886;2023-03-30T07:33:56;16.10;99.90
36800;DHT22;22752;51.960;5.886;2023-03-30T07:36:22;16.80;99.90
36800;DHT22;22752;51.960;5.886;2023-03-30T07:38:48;17.20;99.90
36800;DHT22;22752;51.960;5.886;2023-03-30T07:41:14;17.60;99.90
36800;DHT22;22752;51.960;5.886;2023-03-30T07:43:41;17.70;99.90
36800;DHT22;22752;51.960;5.886;2023-03-30T07:46:08;17.70;99.90
36800;DHT22;22752;51.960;5.886;2023-03-30T07:48:34;17.60;99.90
36800;DHT22;22752;51.960;5.886;2023-03-30T07:51:07;17.20;99.90
36800;DHT22;22752;51.960;5.886;2023-03-30T07:53:33;16.70;99.90
36800;DHT22;22752;51.960;5.886;2023-03-30T07:55:59;16.20;99.90
36800;DHT22;22752;51.960;5.886;2023-03-30T07:58:25;15.90;99.90
36800;DHT22;22752;51.960;5.886;2023-03-30T08:00:52;15.60;99.90
36800;DHT22;22752;51.960;5.886;2023-03-30T08:03:19;15.40;99.90
36800;DHT22;22752;51.960;5.886;2023-03-30T08:05:53;15.20;99.90
36800;DHT22;22752;51.960;5.886;2023-03-30T08:08:19;15.10;99.90
36800;DHT22;22752;51.960;5.886;2023-03-30T08:10:45;15.00;99.90
36800;DHT22;22752;51.960;5.886;2023-03-30T08:13:11;15.00;99.90
36800;DHT22;22752;51.960;5.886;2023-03-30T08:15:37;15.00;99.90
36800;DHT22;22752;51.960;5.886;2023-03-30T08:18:03;14.90;99.90
36800;DHT22;22752;51.960;5.886;2023-03-30T08:20:34;15.00;99.90
36800;DHT22;22752;51.960;5.886;2023-03-30T08:23:00;15.00;99.90
36800;DHT22;22752;51.960;5.886;2023-03-30T08:25:26;15.10;99.90
36800;DHT22;22752;51.960;5.886;2023-03-30T08:27:52;15.10;99.90
36800;DHT22;22752;51.960;5.886;2023-03-30T08:30:17;15.20;99.90
36800;DHT22;22752;51.960;5.886;2023-03-30T08:32:43;15.50;99.90
36800;DHT22;22752;51.960;5.886;2023-03-30T08:35:09;15.70;99.90
36800;DHT22;22752;51.960;5.886;2023-03-30T08:37:37;15.90;99.90
36800;DHT22;22752;51.960;5.886;2023-03-30T08:40:04;15.90;99.90
36800;DHT22;22752;51.960;5.886;2023-03-30T08:43:09;16.10;99.90
36800;DHT22;22752;51.960;5.886;2023-03-30T08:45:40;16.20;99.90
36800;DHT22;22752;51.960;5.886;2023-03-30T08:48:14;16.20;99.90
36800;DHT22;22752;51.960;5.886;2023-03-30T08:50:43;16.10;99.90
36800;DHT22;22752;51.960;5.886;2023-03-30T08:53:11;16.00;99.90
36800;DHT22;22752;51.960;5.886;2023-03-30T09:06:42;15.40;99.90
36800;DHT22;22752;51.960;5.886;2023-03-30T09:09:12;15.40;99.90
36800;DHT22;22752;51.960;5.886;2023-03-30T09:11:40;15.30;99.90
36800;DHT22;22752;51.960;5.886;2023-03-30T09:14:14;15.30;99.90
36800;DHT22;22752;51.960;5.886;2023-03-30T09:16:51;15.20;99.90
36800;DHT22;22752;51.960;5.886;2023-03-30T09:19:32;15.10;99.90
36800;DHT22;22752;51.960;5.886;2023-03-30T09:22:01;15.10;99.90
36800;DHT22;22752;51.960;5.886;2023-03-30T09:24:28;14.80;99.90
36800;DHT22;22752;51.960;5.886;2023-03-30T09:27:18;14.70;99.90
36800;DHT22;22752;51.960;5.886;2023-03-30T09:29:48;14.70;99.90
36800;DHT22;22752;51.960;5.886;2023-03-30T09:32:31;14.70;99.90
36800;DHT22;22752;51.960;5.886;2023-03-30T09:35:04;14.80;99.90
36800;DHT22;22752;51.960;5.886;2023-03-30T09:37:35;14.90;99.90
36800;DHT22;22752;51.960;5.886;2023-03-30T09:40:35;15.10;99.90
36800;DHT22;22752;51.960;5.886;2023-03-30T09:43:18;15.30;99.90
36800;DHT22;22752;51.960;5.886;2023-03-30T09:45:48;15.40;99.90
36800;DHT22;22752;51.960;5.886;2023-03-30T09:48:14;15.40;99.90
36800;DHT22;22752;51.960;5.886;2023-03-30T09:50:43;15.40;99.90
36800;DHT22;22752;51.960;5.886;2023-03-30T09:53:25;15.40;99.90
36800;DHT22;22752;51.960;5.886;2023-03-30T09:55:58;15.30;99.90
36800;DHT22;22752;51.960;5.886;2023-03-30T09:58:32;15.20;99.90
36800;DHT22;22752;51.960;5.886;2023-03-30T10:01:10;15.20;99.90
36800;DHT22;22752;51.960;5.886;2023-03-30T10:03:41;15.30;99.90
36800;DHT22;22752;51.960;5.886;2023-03-30T10:06:09;15.40;99.90
36800;DHT22;22752;51.960;5.886;2023-03-30T10:08:50;15.60;99.90
36800;DHT22;22752;51.960;5.886;2023-03-30T10:14:02;15.90;99.90
36800;DHT22;22752;51.960;5.886;2023-03-30T10:16:30;16.10;99.90
36800;DHT22;22752;51.960;5.886;2023-03-30T10:19:03;16.10;99.90
36800;DHT22;22752;51.960;5.886;2023-03-30T10:21:36;16.20;99.90
36800;DHT22;22752;51.960;5.886;2023-03-30T10:24:26;16.10;99.90
36800;DHT22;22752;51.960;5.886;2023-03-30T10:27:02;16.00;99.90
36800;DHT22;22752;51.960;5.886;2023-03-30T10:29:30;15.90;99.90
36800;DHT22;22752;51.960;5.886;2023-03-30T10:32:07;15.80;99.90
36800;DHT22;22752;51.960;5.886;2023-03-30T10:34:37;15.80;99.90
36800;DHT22;22752;51.960;5.886;2023-03-30T10:37:08;15.70;99.90
36800;DHT22;22752;51.960;5.886;2023-03-30T10:39:37;15.70;99.90
36800;DHT22;22752;51.960;5.886;2023-03-30T10:42:04;15.70;99.90
36800;DHT22;22752;51.960;5.886;2023-03-30T10:44:54;15.80;99.90
36800;DHT22;22752;51.960;5.886;2023-03-30T10:50:19;16.10;99.90
36800;DHT22;22752;51.960;5.886;2023-03-30T10:58:10;16.20;99.90
36800;DHT22;22752;51.960;5.886;2023-03-30T11:03:24;16.30;99.90
36800;DHT22;22752;51.960;5.886;2023-03-30T11:06:04;16.20;99.90
36800;DHT22;22752;51.960;5.886;2023-03-30T11:08:51;16.00;99.90
36800;DHT22;22752;51.960;5.886;2023-03-30T11:11:26;16.00;99.90
36800;DHT22;22752;51.960;5.886;2023-03-30T11:14:02;15.90;99.90
36800;DHT22;22752;51.960;5.886;2023-03-30T11:22:51;15.90;99.90
36800;DHT22;22752;51.960;5.886;2023-03-30T11:25:24;15.90;99.90
36800;DHT22;22752;51.960;5.886;2023-03-30T11:28:20;16.10;99.90
36800;DHT22;22752;51.960;5.886;2023-03-30T11:30:42;16.30;99.90
36800;DHT22;22752;51.960;5.886;2023-03-30T11:34:18;16.50;99.90
36800;DHT22;22752;51.960;5.886;2023-03-30T11:36:16;16.70;99.90
36800;DHT22;22752;51.960;5.886;2023-03-30T11:39:01;16.90;99.90
36800;DHT22;22752;51.960;5.886;2023-03-30T11:43:56;17.20;99.90
36800;DHT22;22752;51.960;5.886;2023-03-30T11:54:34;17.40;99.90
36800;DHT22;22752;51.960;5.886;2023-03-30T11:57:23;17.50;99.90
36800;DHT22;22752;51.960;5.886;2023-03-30T12:05:10;17.40;99.90
36800;DHT22;22752;51.960;5.886;2023-03-30T12:10:40;17.30;99.90
36800;DHT22;22752;51.960;5.886;2023-03-30T12:13:13;17.10;99.90
36800;DHT22;22752;51.960;5.886;2023-03-30T12:15:52;17.00;99.90
36800;DHT22;22752;51.960;5.886;2023-03-30T12:21:33;17.10;99.90
36800;DHT22;22752;51.960;5.886;2023-03-30T12:26:38;17.10;99.90
36800;DHT22;22752;51.960;5.886;2023-03-30T12:31:48;17.00;99.90
36800;DHT22;22752;51.960;5.886;2023-03-30T12:34:15;16.90;99.90
36800;DHT22;22752;51.960;5.886;2023-03-30T12:36:45;16.80;99.90
36800;DHT22;22752;51.960;5.886;2023-03-30T12:39:26;16.70;99.90
36800;DHT22;22752;51.960;5.886;2023-03-30T12:45:01;16.80;99.90
36800;DHT22;22752;51.960;5.886;2023-03-30T12:56:25;17.00;99.90
36800;DHT22;22752;51.960;5.886;2023-03-30T13:04:09;17.00;99.90
36800;DHT22;22752;51.960;5.886;2023-03-30T13:06:46;17.20;99.90
36800;DHT22;22752;51.960;5.886;2023-03-30T13:12:05;17.10;99.90
36800;DHT22;22752;51.960;5.886;2023-03-30T13:29:39;17.40;99.90
36800;DHT22;22752;51.960;5.886;2023-03-30T13:46:23;16.70;99.90
36800;DHT22;22752;51.960;5.886;2023-03-30T13:51:42;17.00;99.90
36800;DHT22;22752;51.960;5.886;2023-03-30T13:54:19;17.30;99.90
36800;DHT22;22752;51.960;5.886;2023-03-30T13:56:56;17.40;99.90
36800;DHT22;22752;51.960;5.886;2023-03-30T13:59:28;17.50;99.90
36800;DHT22;22752;51.960;5.886;2023-03-30T14:01:58;17.60;99.90
36800;DHT22;22752;51.960;5.886;2023-03-30T14:04:29;17.70;99.90
36800;DHT22;22752;51.960;5.886;2023-03-30T14:06:55;17.70;99.90
36800;DHT22;22752;51.960;5.886;2023-03-30T14:09:25;17.60;99.90
36800;DHT22;22752;51.960;5.886;2023-03-30T14:11:57;17.50;99.90
36800;DHT22;22752;51.960;5.886;2023-03-30T14:14:39;17.40;99.90
36800;DHT22;22752;51.960;5.886;2023-03-30T14:17:20;17.40;99.90
36800;DHT22;22752;51.960;5.886;2023-03-30T14:22:26;17.20;99.90
36800;DHT22;22752;51.960;5.886;2023-03-30T14:25:00;17.20;99.90
36800;DHT22;22752;51.960;5.886;2023-03-30T14:27:36;17.20;99.90
36800;DHT22;22752;51.960;5.886;2023-03-30T14:30:22;17.20;99.90
36800;DHT22;22752;51.960;5.886;2023-03-30T14:33:12;17.20;99.90
36800;DHT22;22752;51.960;5.886;2023-03-30T14:35:43;17.00;99.90
36800;DHT22;22752;51.960;5.886;2023-03-30T14:38:14;17.00;99.90
36800;DHT22;22752;51.960;5.886;2023-03-30T14:40:41;17.00;99.90
36800;DHT22;22752;51.960;5.886;2023-03-30T14:43:11;17.00;99.90
36800;DHT22;22752;51.960;5.886;2023-03-30T14:45:37;17.10;99.90
36800;DHT22;22752;51.960;5.886;2023-03-30T14:48:03;17.10;99.90
36800;DHT22;22752;51.960;5.886;2023-03-30T14:50:29;17.20;99.90
36800;DHT22;22752;51.960;5.886;2023-03-30T14:52:55;17.30;99.90
36800;DHT22;22752;51.960;5.886;2023-03-30T14:55:24;17.40;99.90
36800;DHT22;22752;51.960;5.886;2023-03-30T14:57:50;17.50;99.90
36800;DHT22;22752;51.960;5.886;2023-03-30T15:00:18;17.40;99.90
36800;DHT22;22752;51.960;5.886;2023-03-30T15:02:52;17.40;99.90
36800;DHT22;22752;51.960;5.886;2023-03-30T15:05:22;17.40;99.90
36800;DHT22;22752;51.960;5.886;2023-03-30T15:07:49;17.40;99.90
36800;DHT22;22752;51.960;5.886;2023-03-30T15:10:34;17.40;99.90
36800;DHT22;22752;51.960;5.886;2023-03-30T15:13:01;17.40;99.90
36800;DHT22;22752;51.960;5.886;2023-03-30T15:15:30;17.40;99.90
36800;DHT22;22752;51.960;5.886;2023-03-30T15:17:56;17.50;99.90
36800;DHT22;22752;51.960;5.886;2023-03-30T15:20:24;17.50;99.90
36800;DHT22;22752;51.960;5.886;2023-03-30T15:22:51;17.50;99.90
36800;DHT22;22752;51.960;5.886;2023-03-30T15:25:20;17.50;99.90
36800;DHT22;22752;51.960;5.886;2023-03-30T15:28:08;17.40;99.90
36800;DHT22;22752;51.960;5.886;2023-03-30T15:30:39;17.30;99.90
36800;DHT22;22752;51.960;5.886;2023-03-30T15:33:30;17.20;99.90
36800;DHT22;22752;51.960;5.886;2023-03-30T15:36:05;17.20;99.90
36800;DHT22;22752;51.960;5.886;2023-03-30T15:38:34;17.20;99.90
36800;DHT22;22752;51.960;5.886;2023-03-30T15:41:12;17.10;99.90
36800;DHT22;22752;51.960;5.886;2023-03-30T15:43:52;17.10;99.90
36800;DHT22;22752;51.960;5.886;2023-03-30T15:46:18;17.20;99.90
36800;DHT22;22752;51.960;5.886;2023-03-30T15:48:48;17.00;99.90
36800;DHT22;22752;51.960;5.886;2023-03-30T15:54:06;16.80;99.90
36800;DHT22;22752;51.960;5.886;2023-03-30T15:56:39;16.70;99.90
36800;DHT22;22752;51.960;5.886;2023-03-30T15:59:13;16.70;99.90
36800;DHT22;22752;51.960;5.886;2023-03-30T16:01:52;16.70;99.90
36800;DHT22;22752;51.960;5.886;2023-03-30T16:04:21;16.60;99.90
36800;DHT22;22752;51.960;5.886;2023-03-30T16:06:47;16.50;99.90
36800;DHT22;22752;51.960;5.886;2023-03-30T16:09:12;16.50;99.90
36800;DHT22;22752;51.960;5.886;2023-03-30T16:11:38;16.50;99.90
36800;DHT22;22752;51.960;5.886;2023-03-30T16:14:05;16.50;99.90
36800;DHT22;22752;51.960;5.886;2023-03-30T16:16:32;16.50;99.90
36800;DHT22;22752;51.960;5.886;2023-03-30T16:18:58;16.60;99.90
36800;DHT22;22752;51.960;5.886;2023-03-30T16:21:25;16.50;99.90
36800;DHT22;22752;51.960;5.886;2023-03-30T16:23:50;16.50;99.90
36800;DHT22;22752;51.960;5.886;2023-03-30T16:26:17;16.40;99.90
36800;DHT22;22752;51.960;5.886;2023-03-30T16:28:43;16.40;99.90
36800;DHT22;22752;51.960;5.886;2023-03-30T16:31:13;16.30;99.90
36800;DHT22;22752;51.960;5.886;2023-03-30T16:33:40;16.30;99.90
36800;DHT22;22752;51.960;5.886;2023-03-30T16:36:06;16.20;99.90
36800;DHT22;22752;51.960;5.886;2023-03-30T16:38:31;16.20;99.90
36800;DHT22;22752;51.960;5.886;2023-03-30T16:40:59;16.20;99.90
36800;DHT22;22752;51.960;5.886;2023-03-30T16:43:25;16.20;99.90
36800;DHT22;22752;51.960;5.886;2023-03-30T16:45:51;16.10;99.90
36800;DHT22;22752;51.960;5.886;2023-03-30T16:48:17;16.00;99.90
36800;DHT22;22752;51.960;5.886;2023-03-30T16:50:49;15.90;99.90
36800;DHT22;22752;51.960;5.886;2023-03-30T16:53:19;15.80;99.90
36800;DHT22;22752;51.960;5.886;2023-03-30T16:55:44;15.70;99.90
36800;DHT22;22752;51.960;5.886;2023-03-30T16:58:12;15.70;99.90
36800;DHT22;22752;51.960;5.886;2023-03-30T17:00:47;15.60;99.90
36800;DHT22;22752;51.960;5.886;2023-03-30T17:03:14;15.60;99.90
36800;DHT22;22752;51.960;5.886;2023-03-30T17:05:40;15.60;99.90
36800;DHT22;22752;51.960;5.886;2023-03-30T17:08:15;15.50;99.90
36800;DHT22;22752;51.960;5.886;2023-03-30T17:10:42;15.50;99.90
36800;DHT22;22752;51.960;5.886;2023-03-30T17:13:07;15.50;99.90
36800;DHT22;22752;51.960;5.886;2023-03-30T17:15:33;15.60;99.90
36800;DHT22;22752;51.960;5.886;2023-03-30T17:18:03;15.60;99.90
36800;DHT22;22752;51.960;5.886;2023-03-30T17:20:38;15.60;99.90
36800;DHT22;22752;51.960;5.886;2023-03-30T17:23:04;15.60;99.90
36800;DHT22;22752;51.960;5.886;2023-03-30T17:25:29;15.50;99.90
36800;DHT22;22752;51.960;5.886;2023-03-30T17:27:56;15.50;99.90
36800;DHT22;22752;51.960;5.886;2023-03-30T17:30:32;15.50;99.90
36800;DHT22;22752;51.960;5.886;2023-03-30T17:32:59;15.50;99.90
36800;DHT22;22752;51.960;5.886;2023-03-30T17:35:25;15.50;99.90
36800;DHT22;22752;51.960;5.886;2023-03-30T17:37:52;15.50;99.90
36800;DHT22;22752;51.960;5.886;2023-03-30T17:40:25;15.40;99.90
36800;DHT22;22752;51.960;5.886;2023-03-30T17:42:51;15.30;99.90
36800;DHT22;22752;51.960;5.886;2023-03-30T17:45:19;15.10;99.90
36800;DHT22;22752;51.960;5.886;2023-03-30T17:47:45;15.00;99.90
36800;DHT22;22752;51.960;5.886;2023-03-30T17:52:50;14.80;99.90
36800;DHT22;22752;51.960;5.886;2023-03-30T17:55:17;14.70;99.90
36800;DHT22;22752;51.960;5.886;2023-03-30T17:57:43;14.60;99.90
36800;DHT22;22752;51.960;5.886;2023-03-30T18:00:20;14.50;99.90
36800;DHT22;22752;51.960;5.886;2023-03-30T18:02:46;14.50;99.90
36800;DHT22;22752;51.960;5.886;2023-03-30T18:05:12;14.40;99.90
36800;DHT22;22752;51.960;5.886;2023-03-30T18:07:39;14.40;99.90
36800;DHT22;22752;51.960;5.886;2023-03-30T18:12:39;14.50;99.90
36800;DHT22;22752;51.960;5.886;2023-03-30T18:15:06;14.60;99.90
36800;DHT22;22752;51.960;5.886;2023-03-30T18:17:32;14.60;99.90
36800;DHT22;22752;51.960;5.886;2023-03-30T18:19:57;14.50;99.90
36800;DHT22;22752;51.960;5.886;2023-03-30T18:22:24;14.40;99.90
36800;DHT22;22752;51.960;5.886;2023-03-30T18:24:50;14.30;99.90
36800;DHT22;22752;51.960;5.886;2023-03-30T18:27:16;14.10;99.90
36800;DHT22;22752;51.960;5.886;2023-03-30T18:29:42;14.00;99.90
36800;DHT22;22752;51.960;5.886;2023-03-30T18:32:07;14.00;99.90
36800;DHT22;22752;51.960;5.886;2023-03-30T18:34:33;13.90;99.90